aviador You're here:

CYXR Decoded Metar

EARLTON in ON, CANADA
Report Time2018-02-22 18:00:00
UTC Time2018-02-22 18:21:39
Flight Rules vfr VFR
Wind120° at 04 kt
W.Decomp.*RWY 16: 3.5 kt HW 1.9 kt LCW
RWY 08: 2.5 kt HW 3.2 kt RCW
W.Rank120° ranks 17
Current wind is below 120° avg. (6.8)
Visibility9999 m
Phenomena:N/A
Clouds:N/A
Expected CloudBase > 1,200 ft AGL from Temp-Dew spread
CeilingNone
Temp-9°C (ISA -22)
Dew Point-12°C (79% RH)
AAT-13.6°C
QNH1039 hPa
Density Alt-2,844 ft
Elevation797 ft
Report Wrong Elevation
Raw Report
CYXR 221800Z AUTO 12004KT 9SM CLR M09/M12 A3068 RMK ICG INTMT
SLP413=

Extra information for CYXR:More info

Metar Taf Metar & Taf Last 4 Metars F.Rules Stats Wind Profile Meteogram Temp Stats Airport Information Weather charts Add Link Nearby VenuesMetar ALERT Operation Metar Decoded Social comments